createdAt,value
2018-04-10T00:01:27.203Z,5.73
2018-04-10T00:03:55.252Z,5.50
2018-04-10T00:06:23.314Z,5.93
2018-04-10T00:08:51.374Z,5.93
2018-04-10T00:11:19.420Z,5.80
2018-04-10T00:13:47.505Z,5.60
2018-04-10T00:16:15.573Z,5.73
2018-04-10T00:18:43.639Z,6.30
2018-04-10T00:21:11.685Z,6.67
2018-04-10T00:23:40.507Z,5.53
2018-04-10T00:26:08.548Z,6.33
2018-04-10T00:28:36.614Z,6.33
2018-04-10T00:31:05.446Z,6.00
2018-04-10T00:33:33.494Z,5.60
2018-04-10T00:36:01.560Z,6.23
2018-04-10T00:38:29.608Z,5.70
2018-04-10T00:40:58.435Z,6.27
2018-04-10T00:43:26.472Z,5.93
2018-04-10T00:45:55.322Z,5.43
2018-04-10T00:48:23.369Z,5.70
2018-04-10T00:50:51.435Z,6.00
2018-04-10T00:53:31.259Z,6.17
2018-04-10T00:56:00.228Z,5.90
2018-04-10T00:58:28.290Z,5.60
2018-04-10T01:00:56.350Z,5.63
2018-04-10T01:03:24.412Z,5.60
2018-04-10T01:05:52.472Z,5.33
2018-04-10T01:08:20.524Z,6.03
2018-04-10T01:10:48.593Z,5.90
2018-04-10T01:13:16.641Z,5.73
2018-04-10T01:15:44.702Z,5.97
2018-04-10T01:18:12.744Z,5.70
2018-04-10T01:20:40.822Z,6.27
2018-04-10T01:23:08.878Z,5.50
2018-04-10T01:25:36.929Z,6.00
2018-04-10T01:28:05.213Z,5.67
2018-04-10T01:30:33.278Z,7.03
2018-04-10T01:33:01.337Z,6.33
2018-04-10T01:35:29.396Z,6.13
2018-04-10T01:37:57.446Z,6.80
2018-04-10T01:40:26.276Z,7.07
2018-04-10T01:42:54.321Z,7.17
2018-04-10T01:45:22.398Z,6.77
2018-04-10T01:47:50.453Z,7.37
2018-04-10T01:50:19.278Z,7.37
2018-04-10T01:52:47.328Z,7.40
2018-04-10T01:55:15.600Z,7.40
2018-04-10T01:57:43.666Z,7.60
2018-04-10T02:00:11.725Z,7.57
2018-04-10T02:02:40.558Z,8.43
2018-04-10T02:05:08.601Z,7.90
2018-04-10T02:07:36.662Z,7.57
2018-04-10T02:10:05.489Z,7.33
2018-04-10T02:12:33.619Z,7.50
2018-04-10T02:15:02.473Z,7.20
2018-04-10T02:17:30.533Z,7.83
2018-04-10T02:19:58.718Z,6.97
2018-04-10T02:22:26.771Z,7.53
2018-04-10T02:24:54.861Z,7.80
2018-04-10T02:27:22.907Z,7.63
2018-04-10T02:29:50.965Z,7.10
2018-04-10T02:32:19.036Z,7.70
2018-04-10T02:34:50.078Z,8.00
2018-04-10T02:37:18.147Z,7.97
2018-04-10T02:39:46.214Z,7.33
2018-04-10T02:42:14.267Z,7.47
2018-04-10T02:44:43.554Z,7.87
2018-04-10T02:47:12.377Z,7.73
2018-04-10T02:49:40.431Z,7.30
2018-04-10T02:52:09.246Z,7.73
2018-04-10T02:54:37.324Z,7.10
2018-04-10T02:57:05.364Z,7.40
2018-04-10T02:59:33.429Z,7.57
2018-04-10T03:02:02.250Z,8.40
2018-04-10T03:04:30.305Z,8.30
2018-04-10T03:06:58.585Z,8.13
2018-04-10T03:09:26.631Z,9.07
2018-04-10T03:11:55.445Z,8.70
2018-04-10T03:14:23.526Z,7.87
2018-04-10T03:16:51.607Z,8.73
2018-04-10T03:19:20.647Z,8.33
2018-04-10T03:21:49.475Z,8.17
2018-04-10T03:24:18.850Z,8.43
2018-04-10T03:26:47.669Z,9.27
2018-04-10T03:29:15.739Z,9.67
2018-04-10T03:31:43.803Z,9.20
2018-04-10T03:34:11.851Z,9.20
2018-04-10T03:36:40.688Z,8.80
2018-04-10T03:39:08.734Z,8.50
2018-04-10T03:41:36.929Z,8.53
2018-04-10T03:44:04.960Z,9.47
2018-04-10T03:46:33.029Z,8.90
2018-04-10T03:49:01.863Z,8.77
2018-04-10T03:51:29.914Z,8.93
2018-04-10T03:53:57.967Z,8.87
2018-04-10T03:56:26.109Z,9.33
2018-04-10T03:58:54.348Z,8.43
2018-04-10T04:01:22.414Z,6.97
2018-04-10T04:03:50.925Z,7.40
2018-04-10T04:06:19.012Z,8.30
2018-04-10T04:08:51.066Z,8.90
2018-04-10T04:11:19.124Z,7.70
2018-04-10T04:13:47.178Z,7.73
2018-04-10T04:16:27.054Z,7.33
2018-04-10T04:19:19.873Z,7.83
2018-04-10T04:21:59.683Z,7.60
2018-04-10T04:24:27.734Z,6.50
2018-04-10T04:26:56.555Z,7.37
2018-04-10T04:29:24.585Z,6.83
2018-04-10T04:31:52.638Z,6.60
2018-04-10T04:34:20.677Z,6.70
2018-04-10T04:36:48.735Z,6.83
2018-04-10T04:39:16.781Z,8.33
2018-04-10T04:41:45.610Z,7.37
2018-04-10T04:44:13.656Z,7.27
2018-04-10T04:46:41.720Z,7.33
2018-04-10T04:49:10.542Z,7.60
2018-04-10T04:51:38.611Z,9.07
2018-04-10T04:54:06.674Z,8.00
2018-04-10T04:56:34.791Z,8.57
2018-04-10T04:59:03.131Z,8.07
2018-04-10T05:01:32.935Z,7.67
2018-04-10T05:04:01.003Z,7.57
2018-04-10T05:06:29.064Z,7.93
2018-04-10T05:08:58.914Z,8.90
2018-04-10T05:11:26.976Z,7.83
2018-04-10T05:13:56.458Z,7.50
2018-04-10T05:16:24.538Z,10.83
2018-04-10T05:18:52.625Z,9.27
2018-04-10T05:21:20.702Z,8.53
2018-04-10T05:23:48.774Z,9.23
2018-04-10T05:26:16.833Z,9.00
2018-04-10T05:28:44.918Z,8.87
2018-04-10T05:31:13.058Z,9.03
2018-04-10T05:36:36.984Z,8.20
2018-04-10T05:39:05.995Z,8.27
2018-04-10T05:41:34.064Z,8.00
2018-04-10T05:44:02.143Z,8.13
2018-04-10T05:46:30.223Z,7.83
2018-04-10T05:48:58.288Z,7.70
2018-04-10T05:51:26.352Z,7.73
2018-04-10T05:53:54.546Z,7.50
2018-04-10T05:56:22.601Z,7.27
2018-04-10T05:58:50.669Z,7.67
2018-04-10T06:01:18.836Z,7.70
2018-04-10T06:03:46.910Z,8.13
2018-04-10T06:06:14.977Z,7.53
2018-04-10T06:08:43.056Z,7.40
2018-04-10T06:11:11.120Z,8.17
2018-04-10T06:13:39.193Z,8.13
2018-04-10T06:16:07.263Z,8.10
2018-04-10T06:18:35.339Z,8.10
2018-04-10T06:21:03.429Z,8.63
2018-04-10T06:23:31.487Z,8.67
2018-04-10T06:25:59.537Z,10.87
2018-04-10T06:28:27.619Z,8.53
2018-04-10T06:30:55.686Z,9.27
2018-04-10T06:33:23.745Z,8.30
2018-04-10T06:35:51.799Z,8.07
2018-04-10T06:38:19.852Z,8.63
2018-04-10T06:40:47.905Z,8.60
2018-04-10T06:43:16.730Z,8.63
2018-04-10T06:45:44.793Z,8.57
2018-04-10T06:48:12.995Z,8.30
2018-04-10T06:50:41.030Z,8.50
2018-04-10T06:53:09.106Z,8.10
2018-04-10T06:55:37.198Z,8.60
2018-04-10T06:58:05.243Z,9.30
2018-04-10T07:00:33.316Z,10.53
2018-04-10T07:03:01.372Z,9.90
2018-04-10T07:05:29.412Z,9.53
2018-04-10T07:07:57.527Z,10.13
2018-04-10T07:10:25.538Z,9.43
2018-04-10T07:12:53.988Z,9.90
2018-04-10T07:15:22.026Z,9.90
2018-04-10T07:17:50.836Z,9.00
2018-04-10T07:20:18.908Z,8.23
2018-04-10T07:22:46.948Z,5.77
2018-04-10T07:25:15.774Z,6.87
2018-04-10T07:27:43.869Z,6.03
2018-04-10T07:30:11.909Z,5.80
2018-04-10T07:32:39.978Z,6.30
2018-04-10T07:35:08.022Z,5.70
2018-04-10T07:37:36.843Z,6.03
2018-04-10T07:40:04.939Z,5.77
2018-04-10T07:42:32.988Z,6.13
2018-04-10T07:45:01.052Z,6.13
2018-04-10T07:47:29.092Z,5.90
2018-04-10T07:49:57.921Z,6.20
2018-04-10T07:52:25.964Z,6.27
2018-04-10T07:54:54.018Z,6.07
2018-04-10T07:57:22.117Z,5.73
2018-04-10T07:59:50.178Z,6.03
2018-04-10T08:02:19.192Z,6.33
2018-04-10T08:04:48.113Z,5.93
2018-04-10T08:07:16.105Z,5.83
2018-04-10T08:09:44.163Z,5.63
2018-04-10T08:12:12.218Z,6.00
2018-04-10T08:14:40.307Z,6.70
2018-04-10T08:17:08.371Z,6.90
2018-04-10T08:19:36.445Z,7.03
2018-04-10T08:22:04.479Z,6.20
2018-04-10T08:24:32.529Z,5.93
2018-04-10T08:27:00.614Z,6.43
2018-04-10T08:29:28.681Z,6.50
2018-04-10T08:31:56.746Z,6.60
2018-04-10T08:34:24.822Z,6.83
2018-04-10T08:36:52.893Z,7.83
2018-04-10T08:39:20.969Z,7.87
2018-04-10T08:41:49.034Z,8.00
2018-04-10T08:44:17.106Z,7.87
2018-04-10T08:46:45.186Z,7.80
2018-04-10T08:49:13.243Z,7.07
2018-04-10T08:51:41.323Z,7.03
2018-04-10T08:54:12.158Z,6.70
2018-04-10T08:56:40.220Z,7.27
2018-04-10T08:59:08.279Z,7.57
2018-04-10T09:01:36.350Z,7.10
2018-04-10T09:04:04.429Z,7.37
2018-04-10T09:06:32.472Z,7.60
2018-04-10T09:09:06.531Z,7.43
2018-04-10T09:11:34.594Z,7.10
2018-04-10T09:14:02.645Z,7.37
2018-04-10T09:16:31.467Z,7.43
2018-04-10T09:18:59.523Z,6.80
2018-04-10T09:21:27.626Z,7.33
2018-04-10T09:23:55.702Z,6.93
2018-04-10T09:26:27.946Z,7.80
2018-04-10T09:28:56.009Z,6.87
2018-04-10T09:31:24.078Z,6.67
2018-04-10T09:33:52.146Z,5.50
2018-04-10T09:36:20.211Z,5.90
2018-04-10T09:38:50.637Z,5.00
2018-04-10T09:41:18.695Z,4.80
2018-04-10T09:43:47.522Z,4.67
2018-04-10T09:46:15.574Z,4.93
2018-04-10T09:48:43.634Z,4.30
2018-04-10T09:51:12.475Z,4.40
2018-04-10T09:53:40.546Z,4.62
2018-04-10T09:56:08.629Z,4.37
2018-04-10T09:58:36.675Z,4.00
2018-04-10T10:01:04.733Z,4.20
2018-04-10T10:03:33.608Z,4.00
2018-04-10T10:06:01.893Z,3.92
2018-04-10T10:08:29.958Z,3.17
2018-04-10T10:10:58.030Z,2.83
2018-04-10T10:13:26.096Z,3.03
2018-04-10T10:15:54.159Z,2.97
2018-04-10T10:18:22.220Z,3.50
2018-04-10T10:20:52.271Z,3.37
2018-04-10T10:23:20.456Z,3.22
2018-04-10T10:25:48.625Z,4.10
2018-04-10T10:28:16.681Z,3.92
2018-04-10T10:30:44.746Z,3.78
2018-04-10T10:33:12.810Z,3.70
2018-04-10T10:35:40.878Z,3.97
2018-04-10T10:38:08.924Z,3.70
2018-04-10T10:40:37.935Z,4.87
2018-04-10T10:43:05.945Z,5.00
2018-04-10T10:45:34.005Z,4.63
2018-04-10T10:48:02.072Z,4.87
2018-04-10T10:50:30.121Z,5.07
2018-04-10T10:52:59.123Z,5.80
2018-04-10T10:55:27.191Z,6.00
2018-04-10T10:57:55.262Z,6.10
2018-04-10T11:00:23.354Z,5.73
2018-04-10T11:02:51.614Z,6.10
2018-04-10T11:05:19.660Z,6.20
2018-04-10T11:07:48.498Z,5.70
2018-04-10T11:10:16.541Z,6.17
2018-04-10T11:12:44.587Z,6.47
2018-04-10T11:15:12.644Z,6.07
2018-04-10T11:17:40.707Z,6.70
2018-04-10T11:20:08.804Z,6.00
2018-04-10T11:22:36.818Z,6.17
2018-04-10T11:25:04.856Z,6.80
2018-04-10T11:33:53.279Z,7.83
2018-04-10T11:36:22.112Z,9.17
2018-04-10T11:38:50.196Z,13.13
2018-04-10T11:41:18.238Z,7.20
2018-04-10T11:43:47.063Z,7.80
2018-04-10T11:46:15.132Z,7.43
2018-04-10T11:48:43.444Z,7.40
2018-04-10T11:51:13.301Z,7.40
2018-04-10T11:53:41.350Z,7.70
2018-04-10T11:56:09.425Z,7.97
2018-04-10T11:58:37.496Z,7.57
2018-04-10T12:01:07.503Z,7.20
2018-04-10T12:03:35.554Z,7.43
2018-04-10T12:06:04.383Z,7.17
2018-04-10T12:08:32.448Z,8.13
2018-04-10T12:11:00.517Z,7.33
2018-04-10T12:13:28.588Z,7.50
2018-04-10T12:15:57.419Z,7.43
2018-04-10T12:18:25.480Z,7.87
2018-04-10T12:20:53.557Z,7.70
2018-04-10T12:23:21.619Z,7.37
2018-04-10T12:25:49.728Z,7.73
2018-04-10T12:28:18.560Z,7.73
2018-04-10T12:30:46.629Z,8.37
2018-04-10T12:33:14.709Z,8.33
2018-04-10T12:35:42.772Z,9.03
2018-04-10T12:38:10.848Z,8.73
2018-04-10T12:40:38.919Z,8.33
2018-04-10T12:43:07.235Z,8.77
2018-04-10T12:45:35.252Z,7.83
2018-04-10T12:48:03.322Z,8.77
2018-04-10T12:50:31.378Z,8.57
2018-04-10T12:52:59.451Z,9.03
2018-04-10T12:55:27.520Z,8.53
2018-04-10T12:57:55.591Z,8.90
2018-04-10T13:00:23.644Z,8.60
2018-04-10T13:02:51.878Z,9.67
2018-04-10T13:05:19.934Z,9.47
2018-04-10T13:07:48.005Z,9.30
2018-04-10T13:10:16.071Z,9.10
2018-04-10T13:12:44.156Z,9.87
2018-04-10T13:15:12.202Z,9.03
2018-04-10T13:17:44.815Z,9.57
2018-04-10T13:20:12.887Z,9.70
2018-04-10T13:22:40.967Z,9.30
2018-04-10T13:25:09.035Z,9.47
2018-04-10T13:27:37.102Z,9.27
2018-04-10T13:30:05.183Z,8.90
2018-04-10T13:32:35.234Z,10.10
2018-04-10T13:35:04.103Z,10.60
2018-04-10T13:37:35.035Z,10.47
2018-04-10T13:40:03.900Z,11.47
2018-04-10T13:42:31.971Z,10.27
2018-04-10T13:45:00.778Z,9.37
2018-04-10T13:47:28.839Z,9.60
2018-04-10T13:49:56.901Z,10.57
2018-04-10T13:52:25.019Z,9.10
2018-04-10T13:54:53.087Z,9.00
2018-04-10T13:57:21.164Z,8.70
2018-04-10T13:59:49.323Z,9.63
2018-04-10T14:02:18.160Z,9.80
2018-04-10T14:04:46.229Z,9.57
2018-04-10T14:07:14.305Z,11.10
2018-04-10T14:09:42.476Z,10.70
2018-04-10T14:12:10.610Z,9.50
2018-04-10T14:14:39.698Z,10.40
2018-04-10T14:17:08.571Z,9.80
2018-04-10T14:19:36.637Z,9.67
2018-04-10T14:22:04.976Z,10.43
2018-04-10T14:24:33.028Z,11.17
2018-04-10T14:27:01.103Z,10.27
2018-04-10T14:29:29.179Z,10.80
2018-04-10T14:31:58.115Z,10.77
2018-04-10T14:34:26.191Z,11.03
2018-04-10T14:36:54.265Z,11.37
2018-04-10T14:39:22.338Z,11.53
2018-04-10T14:41:50.412Z,11.37
2018-04-10T14:44:19.247Z,12.27
2018-04-10T14:46:47.306Z,13.73
2018-04-10T14:49:15.384Z,13.17
2018-04-10T14:51:43.565Z,13.10
2018-04-10T14:54:12.444Z,12.83
2018-04-10T14:56:43.644Z,13.33
2018-04-10T14:59:11.720Z,11.93
2018-04-10T15:01:41.075Z,12.40
2018-04-10T15:04:09.915Z,11.90
2018-04-10T15:06:40.402Z,12.23
2018-04-10T15:09:08.469Z,12.30
2018-04-10T15:11:36.630Z,13.00
2018-04-10T15:14:04.699Z,6.03
2018-04-10T15:16:32.768Z,4.10
2018-04-10T15:19:00.839Z,2.90
2018-04-10T15:21:28.919Z,2.57
2018-04-10T15:23:56.987Z,2.50
2018-04-10T15:26:25.042Z,2.57
2018-04-10T15:28:53.162Z,2.20
2018-04-10T15:31:21.202Z,2.47
2018-04-10T15:33:49.258Z,2.37
2018-04-10T15:36:17.330Z,2.17
2018-04-10T15:38:45.778Z,2.37
2018-04-10T15:41:13.835Z,2.50
2018-04-10T15:43:43.746Z,2.10
2018-04-10T15:46:11.817Z,1.80
2018-04-10T15:48:39.884Z,2.43
2018-04-10T15:51:07.959Z,2.03
2018-04-10T15:53:36.027Z,2.00
2018-04-10T15:56:04.113Z,2.03
2018-04-10T15:58:32.278Z,2.40
2018-04-10T16:01:00.345Z,3.10
2018-04-10T16:03:28.424Z,4.90
2018-04-10T16:05:56.564Z,3.50
2018-04-10T16:08:24.626Z,3.40
2018-04-10T16:10:52.823Z,3.37
2018-04-10T16:13:20.883Z,3.00
2018-04-10T16:15:48.934Z,3.03
2018-04-10T16:18:16.999Z,3.30
2018-04-10T16:20:45.795Z,2.53
2018-04-10T16:23:13.861Z,2.20
2018-04-10T16:25:41.931Z,2.33
2018-04-10T16:28:09.991Z,2.37
2018-04-10T16:30:38.063Z,1.70
2018-04-10T16:33:06.151Z,2.17
2018-04-10T16:35:34.215Z,2.60
2018-04-10T16:38:02.280Z,3.47
2018-04-10T16:40:30.354Z,2.50
2018-04-10T16:42:58.416Z,2.37
2018-04-10T16:45:26.500Z,2.20
2018-04-10T16:47:54.547Z,2.17
2018-04-10T16:50:23.372Z,1.90
2018-04-10T16:52:51.435Z,1.80
2018-04-10T16:55:19.506Z,1.90
2018-04-10T16:57:47.611Z,2.30
2018-04-10T17:00:15.682Z,1.83
2018-04-10T17:02:43.736Z,1.57
2018-04-10T17:05:11.809Z,1.80
2018-04-10T17:07:39.880Z,1.63
2018-04-10T17:10:07.943Z,1.80
2018-04-10T17:12:36.006Z,1.70
2018-04-10T17:15:04.077Z,1.60
2018-04-10T17:17:32.135Z,1.80
2018-04-10T17:20:00.214Z,1.57
2018-04-10T17:22:28.278Z,1.30
2018-04-10T17:24:56.332Z,1.70
2018-04-10T17:27:24.402Z,1.57
2018-04-10T17:29:53.231Z,1.80
2018-04-10T17:32:21.655Z,1.73
2018-04-10T17:34:50.483Z,1.73
2018-04-10T17:37:18.552Z,1.70
2018-04-10T17:39:46.641Z,1.80
2018-04-10T17:42:14.662Z,1.83
2018-04-10T17:44:42.714Z,1.50
2018-04-10T17:47:10.770Z,1.90
2018-04-10T17:49:39.294Z,1.77
2018-04-10T17:52:07.424Z,1.40
2018-04-10T17:54:35.524Z,1.50
2018-04-10T17:57:03.538Z,1.50
2018-04-10T17:59:32.391Z,1.50
2018-04-10T18:02:00.446Z,1.80
2018-04-10T18:04:28.513Z,1.60
2018-04-10T18:06:56.557Z,1.70
2018-04-10T18:09:24.639Z,1.30
2018-04-10T18:11:52.712Z,1.40
2018-04-10T18:14:20.752Z,1.60
2018-04-10T18:16:55.822Z,1.50
2018-04-10T18:19:23.950Z,1.60
2018-04-10T18:21:52.088Z,1.27
2018-04-10T18:24:20.192Z,1.40
2018-04-10T18:26:48.619Z,1.63
2018-04-10T18:29:16.688Z,1.50
2018-04-10T18:31:44.838Z,1.40
2018-04-10T18:34:13.680Z,1.33
2018-04-10T18:36:42.520Z,1.07
2018-04-10T18:39:10.824Z,1.20
2018-04-10T18:41:38.933Z,1.13
2018-04-10T18:44:07.745Z,1.00
2018-04-10T18:46:36.850Z,0.90
2018-04-10T18:49:04.912Z,1.40
2018-04-10T18:51:32.992Z,1.10
2018-04-10T18:54:01.269Z,1.10
2018-04-10T18:56:32.375Z,1.07
2018-04-10T18:59:00.508Z,1.03
2018-04-10T19:01:31.447Z,1.23
2018-04-10T19:03:59.513Z,1.33
2018-04-10T19:06:27.778Z,1.40
2018-04-10T19:08:55.831Z,1.80
2018-04-10T19:11:23.899Z,1.17
2018-04-10T19:13:51.950Z,1.00
2018-04-10T19:16:20.016Z,0.90
2018-04-10T19:18:48.067Z,1.00
2018-04-10T19:21:17.754Z,1.00
2018-04-10T19:23:45.835Z,1.90
2018-04-10T19:26:14.092Z,1.33
2018-04-10T19:28:42.304Z,1.20
2018-04-10T19:31:11.149Z,1.40
2018-04-10T19:33:39.201Z,1.13
2018-04-10T19:36:07.276Z,1.20
2018-04-10T19:38:35.327Z,1.20
2018-04-10T19:41:04.349Z,1.37
2018-04-10T19:43:32.492Z,1.17
2018-04-10T19:46:00.570Z,1.27
2018-04-10T19:48:28.620Z,1.33
2018-04-10T19:50:57.487Z,1.10
2018-04-10T19:53:25.542Z,1.40
2018-04-10T19:55:53.612Z,1.13
2018-04-10T19:58:21.679Z,1.30
2018-04-10T20:00:49.754Z,1.23
2018-04-10T20:03:17.815Z,1.17
2018-04-10T20:05:46.158Z,1.00
2018-04-10T20:08:14.259Z,1.20
2018-04-10T20:10:42.355Z,1.20
2018-04-10T20:13:10.404Z,1.20
2018-04-10T20:15:38.554Z,1.17
2018-04-10T20:18:07.355Z,2.97
2018-04-10T20:20:35.403Z,1.80
2018-04-10T20:23:03.474Z,1.63
2018-04-10T20:25:33.540Z,1.77
2018-04-10T20:28:01.608Z,1.10
2018-04-10T20:30:29.684Z,0.80
2018-04-10T20:32:57.861Z,0.97
2018-04-10T20:35:26.000Z,1.30
2018-04-10T20:37:54.068Z,1.27
2018-04-10T20:40:22.125Z,1.30
2018-04-10T20:42:50.194Z,1.23
2018-04-10T20:45:18.311Z,1.50
2018-04-10T20:47:46.383Z,1.37
2018-04-10T20:50:14.455Z,1.20
2018-04-10T20:52:42.536Z,1.20
2018-04-10T20:55:10.604Z,1.07
2018-04-10T20:57:38.683Z,1.20
2018-04-10T21:00:06.757Z,1.20
2018-04-10T21:02:34.835Z,1.30
2018-04-10T21:05:05.585Z,1.33
2018-04-10T21:07:34.439Z,1.30
2018-04-10T21:10:02.563Z,1.10
2018-04-10T21:12:30.683Z,0.90
2018-04-10T21:14:58.735Z,1.10
2018-04-10T21:17:26.874Z,1.10
2018-04-10T21:19:55.083Z,0.90
2018-04-10T21:22:23.120Z,0.93
2018-04-10T21:24:51.174Z,1.00
2018-04-10T21:27:20.012Z,1.00
2018-04-10T21:29:48.119Z,1.10
2018-04-10T21:32:18.603Z,1.10
2018-04-10T21:34:47.205Z,1.40
2018-04-10T21:37:15.280Z,2.03
2018-04-10T21:39:43.342Z,1.97
2018-04-10T21:42:11.418Z,1.30
2018-04-10T21:44:39.524Z,1.30
2018-04-10T21:47:07.608Z,1.27
2018-04-10T21:49:35.743Z,1.27
2018-04-10T21:52:03.830Z,1.73
2018-04-10T21:54:31.894Z,1.53
2018-04-10T21:56:59.975Z,1.97
2018-04-10T21:59:28.035Z,1.40
2018-04-10T22:01:56.131Z,1.30
2018-04-10T22:04:25.024Z,1.30
2018-04-10T22:06:53.157Z,1.00
2018-04-10T22:09:21.276Z,1.40
2018-04-10T22:11:49.401Z,1.53
2018-04-10T22:14:18.441Z,1.03
2018-04-10T22:16:46.519Z,1.17
2018-04-10T22:19:14.592Z,1.40
2018-04-10T22:21:42.655Z,1.33
2018-04-10T22:24:10.762Z,1.10
2018-04-10T22:26:39.806Z,1.50
2018-04-10T22:29:08.662Z,1.40
2018-04-10T22:31:36.746Z,1.20
2018-04-10T22:34:04.775Z,1.30
2018-04-10T22:36:32.823Z,1.30
2018-04-10T22:39:01.008Z,1.00
2018-04-10T22:41:29.066Z,1.20
2018-04-10T22:43:57.140Z,1.17
2018-04-10T22:46:27.112Z,3.60
2018-04-10T22:48:55.938Z,4.73
2018-04-10T22:51:23.997Z,2.13
2018-04-10T22:53:52.060Z,1.30
2018-04-10T22:56:20.125Z,1.40
2018-04-10T22:58:48.193Z,1.33
2018-04-10T23:01:16.272Z,1.40
2018-04-10T23:03:44.406Z,1.33
2018-04-10T23:06:13.087Z,0.93
2018-04-10T23:08:41.164Z,1.10
2018-04-10T23:11:09.383Z,1.27
2018-04-10T23:13:37.635Z,1.20
2018-04-10T23:16:05.700Z,1.40
2018-04-10T23:18:33.804Z,1.27
2018-04-10T23:21:02.759Z,1.50
2018-04-10T23:23:30.830Z,1.80
2018-04-10T23:26:00.071Z,1.50
2018-04-10T23:28:28.180Z,1.47
2018-04-10T23:30:56.280Z,1.50
2018-04-10T23:33:24.461Z,1.40
2018-04-10T23:35:54.358Z,1.20
2018-04-10T23:38:22.419Z,1.30
2018-04-10T23:40:50.576Z,1.30
2018-04-10T23:43:18.662Z,1.20
2018-04-10T23:45:46.759Z,1.10
2018-04-10T23:48:14.907Z,1.23
2018-04-10T23:50:42.968Z,1.00
2018-04-10T23:53:11.086Z,1.00
2018-04-10T23:55:39.110Z,1.17
2018-04-10T23:58:07.177Z,1.20
